Braila, Romania
Current Conditions -  °F | °C
As of 6:00 PM on Tuesday 21 Oct 2014 (Local Time) from LRTC Reporting Station
Clear Clear  
Wind Chill: 70°   Ceiling: Unl
Heat Index: 70°   Visibility: 6mi
Dew Point: 54°   Wind: 7mph
Humidity: 56%   Direction: 220°SW
Pressure: 29.77"   Gusts: NA
Location:  45.28°N, 27.97°E
Report Text: LRTC 211500Z 22006KT CAVOK 21/12 Q1008
Loading
Personal Weather Stations






























Interactive Weather Map
Tropical Storm Tracking
New forecast layout! Learn more

10-Day Weather Forecast

Advertisements
Track Severe Weather on mobile